createdAt,value
2019-02-07T00:01:47.819Z,88.20
2019-02-07T00:04:17.122Z,85.37
2019-02-07T00:06:46.597Z,91.37
2019-02-07T00:09:15.992Z,88.97
2019-02-07T00:11:45.762Z,97.33
2019-02-07T00:14:15.208Z,95.43
2019-02-07T00:16:44.572Z,99.03
2019-02-07T00:19:13.927Z,95.43
2019-02-07T00:21:43.325Z,95.30
2019-02-07T00:24:12.702Z,96.03
2019-02-07T00:26:42.570Z,97.83
2019-02-07T00:29:12.136Z,135.80
2019-02-07T00:31:41.585Z,122.80
2019-02-07T00:34:10.925Z,114.30
2019-02-07T00:36:40.357Z,97.00
2019-02-07T00:39:10.976Z,84.73
2019-02-07T00:41:40.565Z,90.13
2019-02-07T00:44:10.155Z,82.77
2019-02-07T00:46:39.703Z,102.33
2019-02-07T00:49:09.076Z,103.13
2019-02-07T00:51:38.661Z,96.20
2019-02-07T00:54:08.004Z,96.17
2019-02-07T00:56:39.746Z,90.10
2019-02-07T00:59:09.181Z,84.50
2019-02-07T01:01:39.387Z,83.90
2019-02-07T01:04:08.958Z,97.97
2019-02-07T01:06:38.305Z,100.43
2019-02-07T01:09:09.684Z,85.10
2019-02-07T01:11:39.068Z,90.00
2019-02-07T01:14:08.420Z,77.77
2019-02-07T01:16:37.736Z,86.10
2019-02-07T01:19:07.087Z,81.00
2019-02-07T01:21:36.917Z,88.80
2019-02-07T01:24:07.779Z,72.77
2019-02-07T01:26:37.126Z,83.80
2019-02-07T01:29:06.490Z,74.40
2019-02-07T01:31:35.890Z,79.83
2019-02-07T01:34:05.385Z,72.00
2019-02-07T01:36:34.654Z,77.63
2019-02-07T01:39:06.667Z,69.07
2019-02-07T01:41:36.166Z,72.43
2019-02-07T01:44:05.664Z,65.70
2019-02-07T01:46:34.991Z,65.37
2019-02-07T01:49:05.896Z,63.13
2019-02-07T01:51:35.294Z,49.50
2019-02-07T01:54:04.982Z,56.80
2019-02-07T01:56:34.383Z,55.97
2019-02-07T01:59:03.769Z,53.47
2019-02-07T02:01:33.223Z,49.27
2019-02-07T02:04:02.571Z,59.93
2019-02-07T02:06:31.967Z,57.27
2019-02-07T02:09:01.334Z,52.17
2019-02-07T02:11:30.706Z,54.87
2019-02-07T02:14:00.083Z,50.90
2019-02-07T02:16:29.429Z,56.70
2019-02-07T02:18:59.185Z,75.00
2019-02-07T02:21:28.553Z,88.37
2019-02-07T02:23:57.913Z,59.50
2019-02-07T02:26:27.740Z,62.83
2019-02-07T02:28:57.121Z,60.13
2019-02-07T02:31:26.482Z,69.03
2019-02-07T02:33:56.049Z,66.73
2019-02-07T02:36:26.290Z,52.57
2019-02-07T02:38:55.937Z,51.17
2019-02-07T02:41:25.269Z,47.73
2019-02-07T02:43:54.637Z,46.13
2019-02-07T02:46:24.192Z,44.00
2019-02-07T02:48:53.556Z,43.20
2019-02-07T02:51:22.940Z,40.53
2019-02-07T02:53:54.700Z,38.87
2019-02-07T02:56:24.063Z,42.90
2019-02-07T02:58:53.468Z,36.30
2019-02-07T03:01:54.079Z,41.13
2019-02-07T03:04:31.523Z,42.10
2019-02-07T03:09:58.567Z,36.80
2019-02-07T03:12:42.679Z,56.27
2019-02-07T03:15:32.242Z,61.60
2019-02-07T03:18:14.029Z,39.20
2019-02-07T03:21:01.008Z,57.53
2019-02-07T03:23:48.009Z,31.00
2019-02-07T03:26:39.363Z,28.27
2019-02-07T03:29:33.461Z,32.20
2019-02-07T03:32:12.902Z,37.60
2019-02-07T03:35:12.563Z,27.60
2019-02-07T03:37:55.513Z,36.77
2019-02-07T03:40:47.119Z,38.17
2019-02-07T03:43:40.910Z,37.00
2019-02-07T03:46:38.296Z,49.73
2019-02-07T03:49:26.652Z,38.43
2019-02-07T03:52:33.122Z,36.50
2019-02-07T03:55:18.119Z,25.97
2019-02-07T03:58:06.426Z,30.10
2019-02-07T04:00:54.749Z,24.47
2019-02-07T04:03:49.283Z,26.17
2019-02-07T04:09:32.008Z,24.03
2019-02-07T04:12:19.096Z,26.13
2019-02-07T04:15:06.152Z,28.47
2019-02-07T04:17:53.552Z,27.00
2019-02-07T04:20:40.474Z,23.40
2019-02-07T04:23:27.660Z,26.00
2019-02-07T04:26:14.513Z,26.27
2019-02-07T04:28:52.503Z,24.63
2019-02-07T04:31:35.636Z,26.07
2019-02-07T04:34:39.305Z,27.57
2019-02-07T04:37:36.873Z,23.97
2019-02-07T04:40:25.048Z,26.63
2019-02-07T04:43:19.646Z,22.80
2019-02-07T04:46:26.699Z,30.03
2019-02-07T04:49:12.141Z,22.33
2019-02-07T04:52:06.474Z,23.23
2019-02-07T04:55:04.936Z,21.83
2019-02-07T04:57:45.988Z,29.07
2019-02-07T05:00:25.527Z,27.87
2019-02-07T05:03:04.347Z,31.57
2019-02-07T05:05:50.230Z,27.27
2019-02-07T05:08:30.119Z,31.93
2019-02-07T05:11:18.868Z,29.80
2019-02-07T05:14:07.403Z,44.07
2019-02-07T05:17:10.871Z,39.27
2019-02-07T05:19:50.778Z,29.67
2019-02-07T05:22:32.388Z,31.67
2019-02-07T05:25:20.700Z,34.87
2019-02-07T05:28:11.865Z,30.20
2019-02-07T05:31:00.200Z,35.87
2019-02-07T05:33:55.192Z,31.17
2019-02-07T05:36:59.061Z,32.23
2019-02-07T05:39:45.801Z,33.97
2019-02-07T05:42:52.229Z,38.53
2019-02-07T05:45:55.594Z,39.37
2019-02-07T05:48:43.948Z,39.73
2019-02-07T05:51:35.393Z,37.40
2019-02-07T05:54:16.252Z,35.23
2019-02-07T05:57:04.572Z,44.57
2019-02-07T06:00:02.085Z,97.50
2019-02-07T06:02:49.726Z,115.50
2019-02-07T06:05:38.046Z,158.33
2019-02-07T06:08:24.343Z,50.10
2019-02-07T06:11:12.666Z,46.33
2019-02-07T06:14:16.370Z,36.83
2019-02-07T06:17:05.885Z,27.37
2019-02-07T06:19:57.319Z,35.97
2019-02-07T06:22:54.478Z,36.73
2019-02-07T06:25:39.728Z,37.53
2019-02-07T06:28:37.046Z,33.47
2019-02-07T06:31:12.333Z,36.77
2019-02-07T06:33:54.384Z,34.93
2019-02-07T06:36:41.838Z,54.23
2019-02-07T06:39:34.154Z,50.10
2019-02-07T06:42:12.479Z,167.13
2019-02-07T06:44:59.616Z,112.87
2019-02-07T06:47:47.937Z,155.57
2019-02-07T06:50:42.062Z,226.00
2019-02-07T06:53:28.941Z,251.90
2019-02-07T06:56:16.443Z,236.97
2019-02-07T06:59:07.826Z,176.50
2019-02-07T07:01:59.548Z,43.30
2019-02-07T07:04:53.680Z,130.00
2019-02-07T07:07:44.787Z,525.47
2019-02-07T07:10:42.905Z,316.83
2019-02-07T07:13:37.753Z,233.13
2019-02-07T07:16:26.112Z,380.27
2019-02-07T07:19:12.552Z,298.07
2019-02-07T07:21:59.428Z,138.67
2019-02-07T07:25:00.795Z,235.03
2019-02-07T07:27:58.581Z,57.27
2019-02-07T07:31:04.853Z,47.97
2019-02-07T07:34:04.845Z,88.70
2019-02-07T07:36:44.699Z,42.37
2019-02-07T07:39:33.067Z,142.37
2019-02-07T07:42:21.606Z,46.43
2019-02-07T07:45:05.358Z,46.17
2019-02-07T07:47:59.695Z,58.87
2019-02-07T07:50:46.589Z,53.83
2019-02-07T07:53:34.498Z,43.90
2019-02-07T07:56:21.406Z,59.27
2019-02-07T07:59:08.336Z,59.53
2019-02-07T08:01:55.716Z,38.63
2019-02-07T08:04:50.149Z,39.40
2019-02-07T08:07:47.400Z,33.67
2019-02-07T08:10:33.122Z,32.93
2019-02-07T08:13:20.192Z,42.47
2019-02-07T08:16:06.304Z,43.80
2019-02-07T08:18:53.234Z,42.43
2019-02-07T08:21:40.519Z,40.07
2019-02-07T08:24:35.853Z,41.20
2019-02-07T08:27:34.428Z,44.70
2019-02-07T08:30:36.006Z,42.87
2019-02-07T08:33:15.708Z,43.77
2019-02-07T08:35:58.042Z,41.97
2019-02-07T08:38:36.853Z,43.27
2019-02-07T08:41:23.999Z,45.00
2019-02-07T08:44:27.552Z,46.90
2019-02-07T08:47:15.626Z,45.87
2019-02-07T08:50:13.208Z,49.60
2019-02-07T08:53:08.844Z,45.90
2019-02-07T08:56:12.435Z,48.27
2019-02-07T08:59:09.869Z,49.80
2019-02-07T09:01:48.582Z,51.80
2019-02-07T09:04:39.700Z,48.20
2019-02-07T09:07:44.976Z,48.97
2019-02-07T09:10:25.618Z,52.17
2019-02-07T09:13:21.739Z,46.23
2019-02-07T09:16:22.494Z,46.37
2019-02-07T09:19:01.881Z,47.10
2019-02-07T09:21:43.326Z,51.60
2019-02-07T09:24:30.207Z,49.20
2019-02-07T09:27:29.805Z,54.03
2019-02-07T09:30:16.770Z,46.27
2019-02-07T09:33:05.133Z,47.93
2019-02-07T09:35:46.360Z,48.83
2019-02-07T09:38:29.719Z,44.07
2019-02-07T09:41:18.053Z,45.27
2019-02-07T09:44:05.511Z,43.67
2019-02-07T09:46:52.786Z,48.23
2019-02-07T09:49:36.615Z,44.97
2019-02-07T09:52:23.758Z,46.73
2019-02-07T09:55:12.390Z,50.10
2019-02-07T09:57:52.224Z,47.87
2019-02-07T10:00:39.703Z,40.47
2019-02-07T10:03:26.836Z,43.63
2019-02-07T10:06:14.105Z,43.87
2019-02-07T10:09:02.665Z,46.13
2019-02-07T10:12:03.137Z,59.87
2019-02-07T10:14:51.550Z,68.23
2019-02-07T10:17:42.620Z,54.17
2019-02-07T10:20:51.019Z,52.63
2019-02-07T10:23:39.310Z,47.47
2019-02-07T10:26:26.325Z,46.17
2019-02-07T10:29:12.046Z,42.83
2019-02-07T10:31:53.255Z,41.23
2019-02-07T10:34:40.306Z,39.50
2019-02-07T10:37:27.545Z,39.80
2019-02-07T10:40:22.273Z,41.23
2019-02-07T10:43:10.592Z,37.07
2019-02-07T10:45:58.931Z,28.20
2019-02-07T10:48:46.374Z,32.40
2019-02-07T10:51:35.299Z,37.47
2019-02-07T10:54:36.593Z,32.00
2019-02-07T10:57:23.653Z,26.70
2019-02-07T11:00:11.124Z,30.87
2019-02-07T11:03:02.459Z,21.33
2019-02-07T11:05:49.368Z,22.20
2019-02-07T11:08:44.495Z,18.80
2019-02-07T11:11:29.788Z,22.20
2019-02-07T11:14:16.664Z,48.53
2019-02-07T11:16:53.971Z,33.27
2019-02-07T11:19:46.675Z,21.13
2019-02-07T11:22:31.436Z,19.40
2019-02-07T11:25:28.821Z,18.17
2019-02-07T11:28:16.032Z,17.60
2019-02-07T11:30:57.844Z,15.83
2019-02-07T11:33:58.412Z,16.87
2019-02-07T11:36:54.057Z,13.73
2019-02-07T11:39:40.495Z,15.40
2019-02-07T11:42:22.521Z,13.77
2019-02-07T11:45:13.889Z,12.17
2019-02-07T11:48:08.010Z,12.23
2019-02-07T11:50:59.393Z,17.00
2019-02-07T11:53:47.754Z,14.47
2019-02-07T11:56:32.664Z,17.17
2019-02-07T11:59:13.192Z,18.17
2019-02-07T12:02:09.289Z,30.07
2019-02-07T12:04:54.497Z,17.33
2019-02-07T12:07:42.798Z,26.47
2019-02-07T12:10:38.843Z,18.90
2019-02-07T12:13:33.804Z,17.93
2019-02-07T12:16:21.525Z,20.80
2019-02-07T12:19:17.662Z,20.00
2019-02-07T12:22:11.855Z,17.93
2019-02-07T12:25:15.191Z,23.73
2019-02-07T12:28:02.816Z,20.20
2019-02-07T12:30:49.948Z,19.43
2019-02-07T12:33:36.825Z,22.73
2019-02-07T12:36:22.464Z,19.13
2019-02-07T12:38:58.523Z,21.10
2019-02-07T12:42:01.965Z,24.07
2019-02-07T12:44:58.434Z,21.10
2019-02-07T12:47:58.795Z,19.77
2019-02-07T12:50:58.963Z,22.97
2019-02-07T12:53:43.896Z,27.43
2019-02-07T12:56:31.130Z,28.20
2019-02-07T12:59:25.441Z,30.57
2019-02-07T13:02:12.856Z,21.77
2019-02-07T13:05:04.425Z,25.93
2019-02-07T13:08:11.806Z,27.30
2019-02-07T13:10:57.430Z,22.40
2019-02-07T13:13:44.450Z,27.87
2019-02-07T13:16:36.047Z,25.13
2019-02-07T13:19:42.896Z,33.03
2019-02-07T13:22:34.023Z,22.63
2019-02-07T13:25:24.613Z,29.27
2019-02-07T13:28:09.358Z,28.20
2019-02-07T13:30:57.728Z,35.33
2019-02-07T13:33:45.028Z,29.87
2019-02-07T13:36:22.735Z,37.43
2019-02-07T13:39:17.289Z,26.53
2019-02-07T13:42:03.046Z,43.43
2019-02-07T13:44:51.942Z,24.63
2019-02-07T13:47:44.116Z,25.33
2019-02-07T13:50:50.581Z,21.50
2019-02-07T13:53:34.624Z,26.00
2019-02-07T13:56:25.744Z,25.73
2019-02-07T13:59:24.387Z,20.20
2019-02-07T14:02:14.890Z,24.37
2019-02-07T14:04:54.319Z,27.63
2019-02-07T14:07:41.187Z,30.20
2019-02-07T14:10:35.681Z,31.77
2019-02-07T14:13:17.200Z,30.37
2019-02-07T14:16:03.675Z,27.30
2019-02-07T14:18:48.219Z,27.90
2019-02-07T14:21:44.355Z,28.23
2019-02-07T14:24:32.293Z,30.40
2019-02-07T14:27:19.741Z,26.20
2019-02-07T14:30:02.464Z,30.73
2019-02-07T14:32:50.771Z,32.87
2019-02-07T14:35:37.854Z,29.40
2019-02-07T14:38:26.662Z,29.90
2019-02-07T14:41:13.472Z,36.43
2019-02-07T14:44:02.341Z,32.63
2019-02-07T14:46:51.050Z,38.00
2019-02-07T14:49:21.851Z,30.50
2019-02-07T14:51:51.219Z,32.43
2019-02-07T14:54:20.735Z,39.37
2019-02-07T14:56:50.672Z,32.10
2019-02-07T14:59:20.045Z,35.40
2019-02-07T15:01:49.427Z,27.90
2019-02-07T15:04:18.890Z,24.20
2019-02-07T15:06:48.309Z,29.97
2019-02-07T15:09:20.242Z,30.17
2019-02-07T15:11:49.787Z,27.57
2019-02-07T15:14:19.175Z,48.50
2019-02-07T15:16:48.615Z,94.57
2019-02-07T15:19:18.007Z,41.57
2019-02-07T15:21:47.916Z,444.17
2019-02-07T15:24:17.850Z,252.90
2019-02-07T15:26:47.180Z,47.30
2019-02-07T15:29:16.610Z,30.10
2019-02-07T15:31:46.887Z,35.50
2019-02-07T15:34:16.590Z,57.77
2019-02-07T15:36:48.437Z,32.70
2019-02-07T15:39:20.846Z,31.67
2019-02-07T15:41:50.494Z,32.37
2019-02-07T15:44:20.864Z,33.67
2019-02-07T15:46:50.268Z,29.90
2019-02-07T15:49:20.213Z,32.47
2019-02-07T15:51:49.624Z,42.77
2019-02-07T15:54:19.075Z,37.90
2019-02-07T15:56:48.648Z,36.47
2019-02-07T15:59:26.624Z,36.73
2019-02-07T16:02:03.495Z,42.37
2019-02-07T16:04:41.472Z,41.83
2019-02-07T16:07:11.396Z,62.87
2019-02-07T16:09:40.967Z,41.53
2019-02-07T16:12:10.513Z,43.93
2019-02-07T16:14:40.460Z,71.20
2019-02-07T16:17:10.145Z,51.83
2019-02-07T16:19:39.619Z,57.13
2019-02-07T16:22:10.092Z,74.73
2019-02-07T16:24:39.665Z,71.27
2019-02-07T16:27:09.261Z,47.03
2019-02-07T16:29:39.156Z,77.80
2019-02-07T16:32:09.836Z,62.33
2019-02-07T16:34:39.411Z,56.27
2019-02-07T16:37:09.399Z,105.87
2019-02-07T16:39:38.915Z,64.43
2019-02-07T16:42:08.391Z,83.73
2019-02-07T16:44:38.104Z,63.63
2019-02-07T16:47:07.680Z,59.20
2019-02-07T16:49:37.032Z,70.87
2019-02-07T16:52:06.506Z,60.20
2019-02-07T16:54:35.909Z,62.70
2019-02-07T16:57:05.261Z,84.53
2019-02-07T16:59:35.709Z,55.17
2019-02-07T17:02:06.333Z,49.97
2019-02-07T17:04:35.969Z,53.60
2019-02-07T17:09:43.260Z,60.90
2019-02-07T17:12:13.284Z,57.23
2019-02-07T17:14:42.671Z,77.90
2019-02-07T17:17:12.071Z,92.70
2019-02-07T17:19:42.062Z,81.00
2019-02-07T17:22:11.502Z,52.67
2019-02-07T17:24:41.364Z,66.03
2019-02-07T17:27:10.755Z,72.70
2019-02-07T17:29:40.165Z,65.73
2019-02-07T17:32:09.814Z,91.50
2019-02-07T17:34:39.966Z,118.57
2019-02-07T17:37:09.337Z,71.73
2019-02-07T17:39:39.102Z,57.53
2019-02-07T17:42:10.566Z,204.10
2019-02-07T17:44:39.880Z,119.10
2019-02-07T17:47:10.551Z,83.03
2019-02-07T17:49:40.032Z,79.30
2019-02-07T17:52:09.890Z,68.23
2019-02-07T17:54:41.731Z,191.23
2019-02-07T17:57:11.656Z,192.03
2019-02-07T17:59:41.092Z,91.03
2019-02-07T18:02:13.351Z,96.93
2019-02-07T18:04:44.142Z,125.17
2019-02-07T18:07:15.045Z,69.93
2019-02-07T18:09:44.476Z,66.53
2019-02-07T18:12:14.437Z,60.70
2019-02-07T18:14:43.876Z,99.67
2019-02-07T18:17:13.760Z,102.47
2019-02-07T18:19:43.115Z,142.33
2019-02-07T18:22:12.522Z,150.10
2019-02-07T18:24:42.119Z,63.07
2019-02-07T18:27:12.038Z,82.70
2019-02-07T18:29:42.734Z,68.80
2019-02-07T18:32:12.113Z,80.50
2019-02-07T18:34:41.569Z,78.80
2019-02-07T18:37:11.804Z,60.43
2019-02-07T18:39:41.344Z,71.00
2019-02-07T18:42:10.735Z,62.47
2019-02-07T18:44:40.145Z,115.87
2019-02-07T18:47:09.593Z,108.47
2019-02-07T18:49:40.515Z,68.13
2019-02-07T18:52:09.963Z,66.80
2019-02-07T18:54:39.489Z,48.10
2019-02-07T18:57:09.217Z,76.07
2019-02-07T18:59:38.634Z,85.20
2019-02-07T19:02:08.024Z,133.17
2019-02-07T19:04:37.738Z,68.40
2019-02-07T19:09:46.134Z,59.20
2019-02-07T19:12:14.327Z,60.03
2019-02-07T19:14:43.772Z,57.53
2019-02-07T19:17:13.193Z,46.43
2019-02-07T19:19:42.883Z,67.77
2019-02-07T19:22:12.502Z,46.80
2019-02-07T19:24:41.987Z,60.07
2019-02-07T19:27:11.392Z,88.83
2019-02-07T19:29:40.794Z,72.07
2019-02-07T19:32:10.656Z,67.60
2019-02-07T19:34:40.020Z,79.73
2019-02-07T19:37:09.987Z,90.80
2019-02-07T19:39:41.031Z,66.27
2019-02-07T19:42:11.368Z,66.27
2019-02-07T19:44:41.835Z,64.00
2019-02-07T19:47:12.289Z,106.73
2019-02-07T19:49:44.989Z,48.53
2019-02-07T19:52:15.433Z,63.80
2019-02-07T19:54:46.075Z,91.07
2019-02-07T19:57:17.190Z,48.43
2019-02-07T19:59:47.381Z,59.10
2019-02-07T20:02:16.773Z,75.00
2019-02-07T20:04:46.164Z,86.83
2019-02-07T20:07:16.094Z,69.77
2019-02-07T20:09:45.512Z,38.67
2019-02-07T20:12:16.146Z,66.60
2019-02-07T20:14:45.561Z,59.07
2019-02-07T20:17:16.441Z,74.47
2019-02-07T20:19:45.834Z,134.23
2019-02-07T20:22:20.215Z,112.23
2019-02-07T20:24:48.997Z,169.70
2019-02-07T20:27:18.321Z,110.27
2019-02-07T20:29:48.000Z,59.57
2019-02-07T20:32:18.961Z,68.97
2019-02-07T20:34:48.874Z,57.10
2019-02-07T20:37:23.706Z,62.40
2019-02-07T20:39:57.299Z,61.37
2019-02-07T20:42:27.964Z,55.43
2019-02-07T20:44:58.281Z,65.97
2019-02-07T20:47:27.791Z,54.73
2019-02-07T20:49:57.497Z,65.63
2019-02-07T20:52:27.407Z,62.97
2019-02-07T20:54:57.117Z,68.93
2019-02-07T20:57:27.733Z,61.37
2019-02-07T20:59:59.680Z,53.77
2019-02-07T21:02:29.234Z,58.67
2019-02-07T21:04:58.612Z,54.57
2019-02-07T21:07:28.742Z,63.73
2019-02-07T21:09:58.787Z,56.40
2019-02-07T21:12:29.320Z,58.70
2019-02-07T21:14:59.395Z,59.30
2019-02-07T21:17:28.747Z,60.47
2019-02-07T21:19:58.138Z,69.27
2019-02-07T21:22:34.347Z,67.83
2019-02-07T21:24:58.611Z,71.73
2019-02-07T21:27:28.014Z,84.67
2019-02-07T21:29:57.743Z,68.50
2019-02-07T21:32:27.750Z,61.73
2019-02-07T21:34:57.867Z,64.57
2019-02-07T21:37:27.683Z,65.53
2019-02-07T21:39:57.500Z,70.90
2019-02-07T21:42:26.978Z,85.57
2019-02-07T21:44:57.452Z,82.27
2019-02-07T21:47:27.118Z,74.30
2019-02-07T21:49:56.492Z,68.17
2019-02-07T21:52:25.878Z,79.40
2019-02-07T21:54:55.641Z,72.23
2019-02-07T21:57:25.038Z,77.87
2019-02-07T22:00:00.733Z,72.27
2019-02-07T22:02:25.478Z,72.97
2019-02-07T22:04:54.872Z,83.13
2019-02-07T22:07:24.283Z,81.67
2019-02-07T22:09:53.640Z,79.57
2019-02-07T22:12:25.384Z,72.93
2019-02-07T22:14:55.230Z,72.27
2019-02-07T22:17:24.617Z,85.10
2019-02-07T22:19:54.039Z,75.47
2019-02-07T22:22:25.440Z,78.93
2019-02-07T22:24:54.808Z,71.27
2019-02-07T22:27:24.189Z,72.80
2019-02-07T22:29:53.608Z,77.33
2019-02-07T22:32:23.069Z,72.63
2019-02-07T22:34:52.451Z,67.10
2019-02-07T22:37:22.511Z,74.10
2019-02-07T22:39:52.001Z,73.23
2019-02-07T22:42:21.660Z,79.43
2019-02-07T22:44:51.034Z,74.50
2019-02-07T22:47:20.311Z,79.50
2019-02-07T22:49:49.688Z,70.00
2019-02-07T22:52:21.771Z,75.10
2019-02-07T22:54:51.155Z,73.17
2019-02-07T22:57:20.511Z,74.40
2019-02-07T22:59:51.373Z,80.10
2019-02-07T23:02:20.916Z,86.30
2019-02-07T23:04:50.304Z,77.87
2019-02-07T23:07:19.869Z,74.37
2019-02-07T23:09:49.247Z,59.87
2019-02-07T23:12:18.631Z,79.83
2019-02-07T23:14:48.012Z,72.90
2019-02-07T23:17:17.510Z,76.80
2019-02-07T23:19:46.790Z,76.63
2019-02-07T23:22:16.359Z,77.73
2019-02-07T23:24:45.723Z,67.73
2019-02-07T23:27:15.105Z,70.50
2019-02-07T23:29:46.637Z,77.53
2019-02-07T23:32:15.936Z,78.27
2019-02-07T23:34:45.345Z,49.07
2019-02-07T23:37:15.018Z,69.43
2019-02-07T23:39:44.356Z,69.53
2019-02-07T23:42:14.584Z,66.80
2019-02-07T23:44:43.929Z,66.60
2019-02-07T23:47:13.571Z,65.73
2019-02-07T23:49:56.287Z,68.97
2019-02-07T23:52:26.639Z,72.13
2019-02-07T23:54:56.124Z,63.67
2019-02-07T23:57:25.716Z,64.37
2019-02-07T23:59:58.258Z,65.93
